createdAt,value
2018-07-07T00:00:35.130Z,27.06
2018-07-07T00:01:45.065Z,27.04
2018-07-07T00:02:55.007Z,27.07
2018-07-07T00:04:04.436Z,27
2018-07-07T00:05:13.853Z,27.09
2018-07-07T00:06:23.784Z,27.04
2018-07-07T00:07:33.188Z,27.1
2018-07-07T00:08:42.343Z,26.99
2018-07-07T00:09:51.494Z,26.97
2018-07-07T00:11:01.177Z,27
2018-07-07T00:12:10.622Z,26.99
2018-07-07T00:13:19.778Z,26.99
2018-07-07T00:14:28.944Z,27.02
2018-07-07T00:15:38.610Z,26.95
2018-07-07T00:16:48.046Z,26.94
2018-07-07T00:17:57.463Z,26.97
2018-07-07T00:19:06.354Z,26.99
2018-07-07T00:20:15.774Z,26.94
2018-07-07T00:21:25.709Z,26.94
2018-07-07T00:22:35.120Z,26.95
2018-07-07T00:23:44.804Z,27
2018-07-07T00:24:54.200Z,26.95
2018-07-07T00:26:03.868Z,26.94
2018-07-07T00:27:13.128Z,27.07
2018-07-07T00:28:23.156Z,27
2018-07-07T00:29:32.839Z,26.95
2018-07-07T00:30:42.011Z,26.94
2018-07-07T00:31:50.667Z,26.91
2018-07-07T00:32:59.584Z,26.97
2018-07-07T00:34:09.251Z,27
2018-07-07T00:35:18.685Z,26.94
2018-07-07T00:36:28.091Z,26.95
2018-07-07T00:37:37.500Z,26.94
2018-07-07T00:38:46.410Z,26.91
2018-07-07T00:39:56.355Z,26.87
2018-07-07T00:41:05.862Z,26.89
2018-07-07T00:42:15.271Z,26.82
2018-07-07T00:43:24.962Z,26.82
2018-07-07T00:44:34.416Z,26.82
2018-07-07T00:45:43.569Z,26.82
2018-07-07T00:46:53.281Z,26.89
2018-07-07T00:48:03.005Z,26.85
2018-07-07T00:49:12.426Z,26.88
2018-07-07T00:50:22.131Z,26.87
2018-07-07T00:51:31.556Z,26.92
2018-07-07T00:52:40.969Z,26.85
2018-07-07T00:53:50.209Z,26.89
2018-07-07T00:54:59.634Z,26.91
2018-07-07T00:56:08.551Z,26.91
2018-07-07T00:57:18.240Z,26.91
2018-07-07T00:58:27.663Z,26.95
2018-07-07T00:59:37.124Z,26.92
2018-07-07T01:00:46.803Z,26.94
2018-07-07T01:01:56.068Z,26.84
2018-07-07T01:03:05.988Z,26.91
2018-07-07T01:04:15.676Z,26.91
2018-07-07T01:05:25.159Z,26.94
2018-07-07T01:06:34.316Z,26.92
2018-07-07T01:07:43.746Z,27
2018-07-07T01:08:52.901Z,26.91
2018-07-07T01:10:01.800Z,26.94
2018-07-07T01:11:11.483Z,26.92
2018-07-07T01:12:20.910Z,26.91
2018-07-07T01:13:30.075Z,26.94
2018-07-07T01:14:39.733Z,26.92
2018-07-07T01:15:49.403Z,26.97
2018-07-07T01:16:58.311Z,26.94
2018-07-07T01:18:07.733Z,26.97
2018-07-07T01:19:17.405Z,26.94
2018-07-07T01:20:26.313Z,26.88
2018-07-07T01:21:35.486Z,26.92
2018-07-07T01:22:44.671Z,26.94
2018-07-07T01:23:54.602Z,26.89
2018-07-07T01:25:04.044Z,26.92
2018-07-07T01:26:13.451Z,26.82
2018-07-07T01:27:22.877Z,26.82
2018-07-07T01:28:32.071Z,26.87
2018-07-07T01:29:41.497Z,26.85
2018-07-07T01:30:50.930Z,26.8
2018-07-07T01:32:00.393Z,26.87
2018-07-07T01:33:10.072Z,26.89
2018-07-07T01:34:19.583Z,26.88
2018-07-07T01:35:29.257Z,26.81
2018-07-07T01:36:38.174Z,26.88
2018-07-07T01:37:47.766Z,26.85
2018-07-07T01:38:57.597Z,26.84
2018-07-07T01:40:06.240Z,26.85
2018-07-07T01:41:15.672Z,26.84
2018-07-07T01:42:24.827Z,26.81
2018-07-07T01:43:34.000Z,26.89
2018-07-07T01:44:42.904Z,26.82
2018-07-07T01:45:51.849Z,26.85
2018-07-07T01:47:01.077Z,26.88
2018-07-07T01:48:10.224Z,26.89
2018-07-07T01:49:19.391Z,26.87
2018-07-07T01:50:28.047Z,26.8
2018-07-07T01:51:37.232Z,26.75
2018-07-07T01:52:46.681Z,26.75
2018-07-07T01:53:56.103Z,26.75
2018-07-07T01:55:05.788Z,26.8
2018-07-07T01:56:15.215Z,26.73
2018-07-07T01:57:24.646Z,26.72
2018-07-07T01:58:34.071Z,26.81
2018-07-07T01:59:43.497Z,26.75
2018-07-07T02:00:52.659Z,26.8
2018-07-07T02:02:01.818Z,26.77
2018-07-07T02:03:11.220Z,26.82
2018-07-07T02:04:20.625Z,26.75
2018-07-07T02:05:29.777Z,26.73
2018-07-07T02:06:39.454Z,26.69
2018-07-07T02:07:48.628Z,26.76
2018-07-07T02:08:58.308Z,26.72
2018-07-07T02:10:07.207Z,26.75
2018-07-07T02:11:16.375Z,26.66
2018-07-07T02:12:25.862Z,26.76
2018-07-07T02:13:35.020Z,26.66
2018-07-07T02:14:44.452Z,26.65
2018-07-07T02:15:53.342Z,26.69
2018-07-07T02:17:02.767Z,26.66
2018-07-07T02:18:12.191Z,26.63
2018-07-07T02:19:21.868Z,26.66
2018-07-07T02:20:30.777Z,26.7
2018-07-07T02:21:40.222Z,26.58
2018-07-07T02:22:49.374Z,26.63
2018-07-07T02:23:59.301Z,26.7
2018-07-07T02:25:08.745Z,26.66
2018-07-07T02:26:17.923Z,26.65
2018-07-07T02:27:27.087Z,26.65
2018-07-07T02:28:36.250Z,26.62
2018-07-07T02:29:45.933Z,26.66
2018-07-07T02:30:55.602Z,26.63
2018-07-07T02:32:04.768Z,26.65
2018-07-07T02:33:13.935Z,26.65
2018-07-07T02:34:23.364Z,26.54
2018-07-07T02:35:32.538Z,26.65
2018-07-07T02:36:42.204Z,26.62
2018-07-07T02:37:51.878Z,26.66
2018-07-07T02:39:01.551Z,26.67
2018-07-07T02:40:11.249Z,26.58
2018-07-07T02:41:20.699Z,26.57
2018-07-07T02:42:30.636Z,26.62
2018-07-07T02:43:40.299Z,26.57
2018-07-07T02:44:49.710Z,26.63
2018-07-07T02:45:59.130Z,26.66
2018-07-07T02:47:08.281Z,26.58
2018-07-07T02:48:17.716Z,26.57
2018-07-07T02:49:26.872Z,26.54
2018-07-07T02:50:36.562Z,26.63
2018-07-07T02:51:45.987Z,26.55
2018-07-07T02:52:55.410Z,26.62
2018-07-07T02:54:04.842Z,26.63
2018-07-07T02:55:14.502Z,26.58
2018-07-07T02:56:23.910Z,26.57
2018-07-07T02:57:33.312Z,26.54
2018-07-07T02:58:42.453Z,26.6
2018-07-07T02:59:51.363Z,26.51
2018-07-07T03:01:00.814Z,26.65
2018-07-07T03:02:10.751Z,26.57
2018-07-07T03:03:20.307Z,26.54
2018-07-07T03:04:30.158Z,26.63
2018-07-07T03:05:39.578Z,26.58
2018-07-07T03:06:49.010Z,26.54
2018-07-07T03:07:58.943Z,26.65
2018-07-07T03:09:08.103Z,26.63
2018-07-07T03:10:17.568Z,26.54
2018-07-07T03:11:27.004Z,26.55
2018-07-07T03:12:36.688Z,26.55
2018-07-07T03:13:46.361Z,26.55
2018-07-07T03:14:55.780Z,26.57
2018-07-07T03:16:05.482Z,26.62
2018-07-07T03:17:14.642Z,26.57
2018-07-07T03:18:24.591Z,26.5
2018-07-07T03:19:34.000Z,26.55
2018-07-07T03:20:43.167Z,26.6
2018-07-07T03:21:52.396Z,26.62
2018-07-07T03:23:01.836Z,26.55
2018-07-07T03:24:11.004Z,26.48
2018-07-07T03:25:20.426Z,26.52
2018-07-07T03:26:30.127Z,26.54
2018-07-07T03:27:39.558Z,26.45
2018-07-07T03:28:49.238Z,26.48
2018-07-07T03:29:58.395Z,26.51
2018-07-07T03:31:08.090Z,26.55
2018-07-07T03:32:17.269Z,26.45
2018-07-07T03:33:26.683Z,26.47
2018-07-07T03:34:35.593Z,26.58
2018-07-07T03:35:45.016Z,26.44
2018-07-07T03:36:54.426Z,26.47
2018-07-07T03:38:03.956Z,26.47
2018-07-07T03:39:13.635Z,26.45
2018-07-07T03:40:23.094Z,26.44
2018-07-07T03:41:32.776Z,26.48
2018-07-07T03:42:41.936Z,26.52
2018-07-07T03:43:51.858Z,26.48
2018-07-07T03:45:01.011Z,26.52
2018-07-07T03:46:10.164Z,26.5
2018-07-07T03:47:19.333Z,26.45
2018-07-07T03:48:28.500Z,26.54
2018-07-07T03:49:37.647Z,26.51
2018-07-07T03:50:46.835Z,26.5
2018-07-07T03:51:56.241Z,26.45
2018-07-07T03:53:05.140Z,26.45
2018-07-07T03:54:15.070Z,26.48
2018-07-07T03:55:24.513Z,26.5
2018-07-07T03:56:33.934Z,26.44
2018-07-07T03:57:43.099Z,26.43
2018-07-07T03:58:52.321Z,26.47
2018-07-07T04:00:01.522Z,26.44
2018-07-07T04:01:10.944Z,26.47
2018-07-07T04:02:20.084Z,26.44
2018-07-07T04:03:29.244Z,26.45
2018-07-07T04:04:38.647Z,26.43
2018-07-07T04:05:48.075Z,26.36
2018-07-07T04:06:57.247Z,26.44
2018-07-07T04:08:06.699Z,26.43
2018-07-07T04:09:15.846Z,26.44
2018-07-07T04:10:25.017Z,26.44
2018-07-07T04:11:34.186Z,26.43
2018-07-07T04:12:43.599Z,26.35
2018-07-07T04:13:53.064Z,26.33
2018-07-07T04:15:02.518Z,26.3
2018-07-07T04:16:12.206Z,26.36
2018-07-07T04:17:21.882Z,26.4
2018-07-07T04:18:31.572Z,26.35
2018-07-07T04:19:40.720Z,26.37
2018-07-07T04:20:50.274Z,26.32
2018-07-07T04:21:59.692Z,26.3
2018-07-07T04:23:08.871Z,26.32
2018-07-07T04:24:18.534Z,26.32
2018-07-07T04:25:28.211Z,26.37
2018-07-07T04:26:37.398Z,26.33
2018-07-07T04:27:47.070Z,26.3
2018-07-07T04:28:56.231Z,26.3
2018-07-07T04:30:05.146Z,26.3
2018-07-07T04:31:14.306Z,26.29
2018-07-07T04:32:23.977Z,26.32
2018-07-07T04:33:33.132Z,26.33
2018-07-07T04:34:42.555Z,26.33
2018-07-07T04:35:51.960Z,26.3
2018-07-07T04:37:01.369Z,26.29
2018-07-07T04:38:10.789Z,26.33
2018-07-07T04:39:20.189Z,26.29
2018-07-07T04:40:29.379Z,26.26
2018-07-07T04:41:38.834Z,26.3
2018-07-07T04:42:48.510Z,26.33
2018-07-07T04:43:57.671Z,26.26
2018-07-07T04:45:07.357Z,26.32
2018-07-07T04:46:17.041Z,26.28
2018-07-07T04:47:26.188Z,26.33
2018-07-07T04:48:36.114Z,26.35
2018-07-07T04:49:45.530Z,26.32
2018-07-07T04:50:54.683Z,26.35
2018-07-07T04:52:04.368Z,26.37
2018-07-07T04:53:13.766Z,26.39
2018-07-07T04:54:23.190Z,26.37
2018-07-07T04:55:33.102Z,26.35
2018-07-07T04:56:42.519Z,26.43
2018-07-07T04:57:52.199Z,26.43
2018-07-07T04:59:01.099Z,26.37
2018-07-07T05:00:10.505Z,26.44
2018-07-07T05:01:19.922Z,26.47
2018-07-07T05:02:29.335Z,26.4
2018-07-07T05:03:39.017Z,26.45
2018-07-07T05:04:47.656Z,26.37
2018-07-07T05:05:56.826Z,26.47
2018-07-07T05:07:06.002Z,26.44
2018-07-07T05:08:15.418Z,26.4
2018-07-07T05:09:24.847Z,26.44
2018-07-07T05:10:34.277Z,26.43
2018-07-07T05:11:43.714Z,26.39
2018-07-07T05:12:53.146Z,26.44
2018-07-07T05:14:02.569Z,26.45
2018-07-07T05:15:11.729Z,26.36
2018-07-07T05:16:21.137Z,26.44
2018-07-07T05:17:30.565Z,26.37
2018-07-07T05:18:39.968Z,26.43
2018-07-07T05:19:49.388Z,26.45
2018-07-07T05:20:59.076Z,26.47
2018-07-07T05:22:08.763Z,26.37
2018-07-07T05:23:18.452Z,26.44
2018-07-07T05:24:27.362Z,26.44
2018-07-07T05:25:36.254Z,26.5
2018-07-07T05:26:45.422Z,26.47
2018-07-07T05:27:54.075Z,26.4
2018-07-07T05:29:03.302Z,26.43
2018-07-07T05:30:12.993Z,26.39
2018-07-07T05:31:21.907Z,26.45
2018-07-07T05:32:31.328Z,26.45
2018-07-07T05:33:41.010Z,26.47
2018-07-07T05:34:50.191Z,26.45
2018-07-07T05:35:59.528Z,26.44
2018-07-07T05:37:08.728Z,26.45
2018-07-07T05:38:18.181Z,26.45
2018-07-07T05:39:27.620Z,26.44
2018-07-07T05:40:36.796Z,26.37
2018-07-07T05:41:45.948Z,26.4
2018-07-07T05:42:54.860Z,26.47
2018-07-07T05:44:04.034Z,26.45
2018-07-07T05:45:13.199Z,26.47
2018-07-07T05:46:22.419Z,26.44
2018-07-07T05:47:31.572Z,26.4
2018-07-07T05:48:40.750Z,26.43
2018-07-07T05:49:49.907Z,26.47
2018-07-07T05:50:59.592Z,26.47
2018-07-07T05:52:09.011Z,26.4
2018-07-07T05:53:18.177Z,26.44
2018-07-07T05:54:27.364Z,26.4
2018-07-07T05:55:36.536Z,26.48
2018-07-07T05:56:45.958Z,26.44
2018-07-07T05:57:54.862Z,26.44
2018-07-07T05:59:04.281Z,26.43
2018-07-07T06:00:13.440Z,26.43
2018-07-07T06:01:23.110Z,26.33
2018-07-07T06:02:32.009Z,26.39
2018-07-07T06:03:41.704Z,26.43
2018-07-07T06:04:50.605Z,26.37
2018-07-07T06:05:59.780Z,26.35
2018-07-07T06:07:09.458Z,26.37
2018-07-07T06:08:19.128Z,26.35
2018-07-07T06:09:28.294Z,26.36
2018-07-07T06:10:37.449Z,26.35
2018-07-07T06:11:47.141Z,26.29
2018-07-07T06:12:56.071Z,26.33
2018-07-07T06:14:05.734Z,26.44
2018-07-07T06:15:14.901Z,26.39
2018-07-07T06:16:24.358Z,26.43
2018-07-07T06:17:34.293Z,26.35
2018-07-07T06:18:43.722Z,26.37
2018-07-07T06:19:52.899Z,26.39
2018-07-07T06:21:02.608Z,26.44
2018-07-07T06:22:11.768Z,26.45
2018-07-07T06:23:20.916Z,26.45
2018-07-07T06:24:30.335Z,26.4
2018-07-07T06:25:39.799Z,26.39
2018-07-07T06:26:49.731Z,26.44
2018-07-07T06:27:59.294Z,26.45
2018-07-07T06:29:08.444Z,26.44
2018-07-07T06:30:18.102Z,26.45
2018-07-07T06:31:27.527Z,26.43
2018-07-07T06:32:36.932Z,26.48
2018-07-07T06:33:46.350Z,26.47
2018-07-07T06:34:55.250Z,26.48
2018-07-07T06:36:04.922Z,26.39
2018-07-07T06:37:14.950Z,26.43
2018-07-07T06:38:24.114Z,26.43
2018-07-07T06:39:33.707Z,26.45
2018-07-07T06:40:42.604Z,26.48
2018-07-07T06:41:52.019Z,26.44
2018-07-07T06:43:01.430Z,26.43
2018-07-07T06:44:10.602Z,26.45
2018-07-07T06:45:20.186Z,26.43
2018-07-07T06:46:29.090Z,26.47
2018-07-07T06:47:38.753Z,26.48
2018-07-07T06:48:48.149Z,26.45
2018-07-07T06:49:57.057Z,26.47
2018-07-07T06:51:06.216Z,26.48
2018-07-07T06:52:15.387Z,26.48
2018-07-07T06:53:25.058Z,26.45
2018-07-07T06:54:34.497Z,26.48
2018-07-07T06:55:44.177Z,26.47
2018-07-07T06:56:53.067Z,26.55
2018-07-07T06:58:02.991Z,26.54
2018-07-07T06:59:12.411Z,26.58
2018-07-07T07:00:21.310Z,26.55
2018-07-07T07:01:30.719Z,26.58
2018-07-07T07:02:40.132Z,26.51
2018-07-07T07:03:49.025Z,26.55
2018-07-07T07:04:58.438Z,26.62
2018-07-07T07:06:08.153Z,26.58
2018-07-07T07:07:17.307Z,26.63
2018-07-07T07:08:25.953Z,26.66
2018-07-07T07:09:35.807Z,26.65
2018-07-07T07:10:45.227Z,26.67
2018-07-07T07:11:54.739Z,26.6
2018-07-07T07:13:04.201Z,26.62
2018-07-07T07:14:13.348Z,26.67
2018-07-07T07:15:22.758Z,26.63
2018-07-07T07:16:32.171Z,26.76
2018-07-07T07:17:41.326Z,26.66
2018-07-07T07:18:50.743Z,26.63
2018-07-07T07:20:00.514Z,26.67
2018-07-07T07:21:10.648Z,26.76
2018-07-07T07:22:19.809Z,26.72
2018-07-07T07:23:28.970Z,26.69
2018-07-07T07:24:38.899Z,26.73
2018-07-07T07:25:48.052Z,26.72
2018-07-07T07:26:57.775Z,26.81
2018-07-07T07:28:07.137Z,26.77
2018-07-07T07:29:17.067Z,26.81
2018-07-07T07:30:26.741Z,26.76
2018-07-07T07:31:35.891Z,26.82
2018-07-07T07:32:45.565Z,26.81
2018-07-07T07:33:55.247Z,26.8
2018-07-07T07:35:04.419Z,26.77
2018-07-07T07:36:13.840Z,26.8
2018-07-07T07:37:23.512Z,26.75
2018-07-07T07:38:33.427Z,26.8
2018-07-07T07:39:43.078Z,26.85
2018-07-07T07:40:53.277Z,26.82
2018-07-07T07:42:03.227Z,26.8
2018-07-07T07:43:13.008Z,26.85
2018-07-07T07:44:23.055Z,26.82
2018-07-07T07:45:32.469Z,26.82
2018-07-07T07:46:42.410Z,26.88
2018-07-07T07:47:51.835Z,26.85
2018-07-07T07:49:00.995Z,26.82
2018-07-07T07:50:10.664Z,26.82
2018-07-07T07:51:20.319Z,26.85
2018-07-07T07:52:29.481Z,26.82
2018-07-07T07:53:38.631Z,26.84
2018-07-07T07:54:48.317Z,26.84
2018-07-07T07:55:57.981Z,26.89
2018-07-07T07:57:07.399Z,26.89
2018-07-07T07:58:16.810Z,26.85
2018-07-07T07:59:25.962Z,26.89
2018-07-07T08:00:35.893Z,26.89
2018-07-07T08:01:44.800Z,26.91
2018-07-07T08:02:54.207Z,26.87
2018-07-07T08:04:03.876Z,26.84
2018-07-07T08:05:12.774Z,26.91
2018-07-07T08:06:21.682Z,26.89
2018-07-07T08:07:31.392Z,26.91
2018-07-07T08:08:40.809Z,26.94
2018-07-07T08:09:49.969Z,26.94
2018-07-07T08:10:59.645Z,26.92
2018-07-07T08:12:09.336Z,26.91
2018-07-07T08:13:18.486Z,26.94
2018-07-07T08:14:27.646Z,26.95
2018-07-07T08:15:37.071Z,26.94
2018-07-07T08:16:46.482Z,26.94
2018-07-07T08:17:55.629Z,26.99
2018-07-07T08:19:05.553Z,26.95
2018-07-07T08:20:14.961Z,26.94
2018-07-07T08:21:24.376Z,26.94
2018-07-07T08:22:34.239Z,27.02
2018-07-07T08:23:43.986Z,26.94
2018-07-07T08:24:53.398Z,26.94
2018-07-07T08:26:02.829Z,26.92
2018-07-07T08:27:12.567Z,27.02
2018-07-07T08:28:21.806Z,27
2018-07-07T08:29:31.287Z,26.97
2018-07-07T08:30:40.954Z,27
2018-07-07T08:31:50.104Z,26.97
2018-07-07T08:32:59.560Z,26.99
2018-07-07T08:34:08.462Z,27.02
2018-07-07T08:35:17.391Z,27.02
2018-07-07T08:36:26.573Z,27
2018-07-07T08:37:36.395Z,26.97
2018-07-07T08:38:46.085Z,27
2018-07-07T08:39:55.498Z,26.99
2018-07-07T08:41:05.454Z,26.99
2018-07-07T08:42:14.772Z,26.99
2018-07-07T08:43:24.306Z,27
2018-07-07T08:44:34.040Z,26.97
2018-07-07T08:45:43.465Z,27.04
2018-07-07T08:46:52.612Z,27.04
2018-07-07T08:48:01.784Z,27.02
2018-07-07T08:49:11.491Z,27.1
2018-07-07T08:50:21.329Z,26.99
2018-07-07T08:51:30.732Z,27
2018-07-07T08:52:40.160Z,27.07
2018-07-07T08:53:49.076Z,26.97
2018-07-07T08:54:58.512Z,27.07
2018-07-07T08:56:08.175Z,27.02
2018-07-07T08:57:17.841Z,27.04
2018-07-07T08:58:27.530Z,27.1
2018-07-07T08:59:36.943Z,27.1
2018-07-07T09:00:46.119Z,27.02
2018-07-07T09:01:55.536Z,27.12
2018-07-07T09:03:04.713Z,27.04
2018-07-07T09:04:13.359Z,27.04
2018-07-07T09:05:22.507Z,27.06
2018-07-07T09:06:32.214Z,27.14
2018-07-07T09:07:41.949Z,27.07
2018-07-07T09:08:52.257Z,27.1
2018-07-07T09:10:01.688Z,27.1
2018-07-07T09:11:10.592Z,27.09
2018-07-07T09:12:19.756Z,27.07
2018-07-07T09:13:28.655Z,27.09
2018-07-07T09:14:38.089Z,27.1
2018-07-07T09:15:47.509Z,27.07
2018-07-07T09:16:56.913Z,27.06
2018-07-07T09:18:06.595Z,27.07
2018-07-07T09:19:15.737Z,27.06
2018-07-07T09:20:25.143Z,27.09
2018-07-07T09:21:34.827Z,27.21
2018-07-07T09:22:44.250Z,27.12
2018-07-07T09:23:53.669Z,27.09
2018-07-07T09:25:03.095Z,27.13
2018-07-07T09:26:12.566Z,27.14
2018-07-07T09:27:21.731Z,27.09
2018-07-07T09:28:31.164Z,27.17
2018-07-07T09:29:40.588Z,27.14
2018-07-07T09:30:50.595Z,27.1
2018-07-07T09:32:00.683Z,27.19
2018-07-07T09:33:09.849Z,27.14
2018-07-07T09:34:19.508Z,27.14
2018-07-07T09:35:28.677Z,27.1
2018-07-07T09:36:37.825Z,27.09
2018-07-07T09:37:47.000Z,27.13
2018-07-07T09:38:56.273Z,27.17
2018-07-07T09:40:05.448Z,27.09
2018-07-07T09:41:14.102Z,27.18
2018-07-07T09:42:23.787Z,27.13
2018-07-07T09:43:33.728Z,27.14
2018-07-07T09:44:43.391Z,27.17
2018-07-07T09:45:53.083Z,27.17
2018-07-07T09:47:02.241Z,27.13
2018-07-07T09:48:11.656Z,27.13
2018-07-07T09:49:21.344Z,27.18
2018-07-07T09:50:31.272Z,27.13
2018-07-07T09:51:40.443Z,27.13
2018-07-07T09:52:49.863Z,27.13
2018-07-07T09:53:59.023Z,27.19
2018-07-07T09:55:07.919Z,27.12
2018-07-07T09:56:17.716Z,27.14
2018-07-07T09:57:27.171Z,27.17
2018-07-07T09:58:36.082Z,27.13
2018-07-07T09:59:45.243Z,27.13
2018-07-07T10:00:54.909Z,27.18
2018-07-07T10:02:04.449Z,27.17
2018-07-07T10:03:13.372Z,27.14
2018-07-07T10:04:22.780Z,27.12
2018-07-07T10:05:32.456Z,27.17
2018-07-07T10:06:41.883Z,27.19
2018-07-07T10:07:51.170Z,27.17
2018-07-07T10:09:00.318Z,27.13
2018-07-07T10:10:09.495Z,27.13
2018-07-07T10:11:19.418Z,27.13
2018-07-07T10:12:28.572Z,27.17
2018-07-07T10:13:38.414Z,27.13
2018-07-07T10:14:47.575Z,27.12
2018-07-07T10:15:56.736Z,27.14
2018-07-07T10:17:06.156Z,27.21
2018-07-07T10:18:15.573Z,27.17
2018-07-07T10:19:24.994Z,27.13
2018-07-07T10:20:34.172Z,27.18
2018-07-07T10:21:43.905Z,27.14
2018-07-07T10:22:52.865Z,27.13
2018-07-07T10:24:02.032Z,27.22
2018-07-07T10:25:11.452Z,27.19
2018-07-07T10:26:20.511Z,27.13
2018-07-07T10:27:30.344Z,27.22
2018-07-07T10:28:39.503Z,27.17
2018-07-07T10:29:48.665Z,27.22
2018-07-07T10:30:57.625Z,27.14
2018-07-07T10:32:07.047Z,27.13
2018-07-07T10:33:16.456Z,27.13
2018-07-07T10:34:25.608Z,27.19
2018-07-07T10:35:34.518Z,27.22
2018-07-07T10:36:44.292Z,27.13
2018-07-07T10:37:53.764Z,27.19
2018-07-07T10:39:03.238Z,27.21
2018-07-07T10:40:12.416Z,27.17
2018-07-07T10:41:21.873Z,27.19
2018-07-07T10:42:31.067Z,27.18
2018-07-07T10:43:40.779Z,27.19
2018-07-07T10:44:49.972Z,27.12
2018-07-07T10:46:00.235Z,27.25
2018-07-07T10:47:09.797Z,27.18
2018-07-07T10:48:18.694Z,27.18
2018-07-07T10:49:28.109Z,27.14
2018-07-07T10:50:37.289Z,27.18
2018-07-07T10:51:47.227Z,27.17
2018-07-07T10:52:57.265Z,27.13
2018-07-07T10:54:06.682Z,27.18
2018-07-07T10:55:16.107Z,27.18
2018-07-07T10:56:25.796Z,27.13
2018-07-07T10:57:35.474Z,27.18
2018-07-07T10:58:44.958Z,27.14
2018-07-07T10:59:55.071Z,27.19
2018-07-07T11:01:04.256Z,27.18
2018-07-07T11:02:13.672Z,27.17
2018-07-07T11:03:22.597Z,27.22
2018-07-07T11:04:32.278Z,27.21
2018-07-07T11:05:42.211Z,27.22
2018-07-07T11:06:51.381Z,27.19
2018-07-07T11:08:00.824Z,27.18
2018-07-07T11:09:10.244Z,27.25
2018-07-07T11:10:20.184Z,27.24
2018-07-07T11:11:29.608Z,27.19
2018-07-07T11:12:39.009Z,27.21
2018-07-07T11:13:48.179Z,27.14
2018-07-07T11:14:57.072Z,27.25
2018-07-07T11:16:06.249Z,27.17
2018-07-07T11:17:15.929Z,27.21
2018-07-07T11:18:24.838Z,27.18
2018-07-07T11:19:34.257Z,27.24
2018-07-07T11:20:43.692Z,27.19
2018-07-07T11:21:53.361Z,27.19
2018-07-07T11:23:02.515Z,27.24
2018-07-07T11:24:12.192Z,27.25
2018-07-07T11:25:21.603Z,27.21
2018-07-07T11:26:30.502Z,27.25
2018-07-07T11:27:40.163Z,27.25
2018-07-07T11:28:49.831Z,27.18
2018-07-07T11:29:59.665Z,27.22
2018-07-07T11:31:09.363Z,27.24
2018-07-07T11:32:19.028Z,27.25
2018-07-07T11:33:28.501Z,27.29
2018-07-07T11:34:38.165Z,27.24
2018-07-07T11:35:47.819Z,27.22
2018-07-07T11:36:56.766Z,27.24
2018-07-07T11:38:06.606Z,27.27
2018-07-07T11:39:15.764Z,27.24
2018-07-07T11:40:25.429Z,27.19
2018-07-07T11:41:34.854Z,27.19
2018-07-07T11:42:44.022Z,27.25
2018-07-07T11:43:53.434Z,27.24
2018-07-07T11:45:02.343Z,27.28
2018-07-07T11:46:11.772Z,27.25
2018-07-07T11:47:21.687Z,27.25
2018-07-07T11:48:30.858Z,27.25
2018-07-07T11:49:40.006Z,27.24
2018-07-07T11:50:49.669Z,27.22
2018-07-07T11:51:59.373Z,27.25
2018-07-07T11:53:08.789Z,27.24
2018-07-07T11:54:18.202Z,27.25
2018-07-07T11:55:27.115Z,27.25
2018-07-07T11:56:36.290Z,27.29
2018-07-07T11:57:46.210Z,27.18
2018-07-07T11:58:55.887Z,27.27
2018-07-07T12:00:05.294Z,27.21
2018-07-07T12:01:14.977Z,27.22
2018-07-07T12:02:24.654Z,27.22
2018-07-07T12:03:34.348Z,27.29
2018-07-07T12:04:44.272Z,27.29
2018-07-07T12:05:54.346Z,27.27
2018-07-07T12:07:03.755Z,27.22
2018-07-07T12:08:16.723Z,27.24
2018-07-07T12:09:26.461Z,27.24
2018-07-07T12:10:35.629Z,27.19
2018-07-07T12:11:45.024Z,27.22
2018-07-07T12:12:54.074Z,27.21
2018-07-07T12:14:03.754Z,27.22
2018-07-07T12:15:12.904Z,27.24
2018-07-07T12:16:21.558Z,27.22
2018-07-07T12:17:31.389Z,27.22
2018-07-07T12:18:40.993Z,27.24
2018-07-07T12:19:50.143Z,27.19
2018-07-07T12:20:59.029Z,27.19
2018-07-07T12:22:08.799Z,27.29
2018-07-07T12:23:17.961Z,27.31
2018-07-07T12:24:27.693Z,27.29
2018-07-07T12:25:37.117Z,27.22
2018-07-07T12:26:46.525Z,27.25
2018-07-07T12:27:55.955Z,27.21
2018-07-07T12:29:05.363Z,27.27
2018-07-07T12:30:15.060Z,27.29
2018-07-07T12:31:24.930Z,27.24
2018-07-07T12:32:34.578Z,27.29
2018-07-07T12:33:43.729Z,27.24
2018-07-07T12:34:53.139Z,27.29
2018-07-07T12:36:02.823Z,27.24
2018-07-07T12:37:11.986Z,27.32
2018-07-07T12:38:21.417Z,27.18
2018-07-07T12:39:30.588Z,27.25
2018-07-07T12:40:40.459Z,27.27
2018-07-07T12:41:49.864Z,27.32
2018-07-07T12:42:59.035Z,27.27
2018-07-07T12:44:08.459Z,27.32
2018-07-07T12:45:17.612Z,27.18
2018-07-07T12:46:27.041Z,27.34
2018-07-07T12:47:36.457Z,27.29
2018-07-07T12:48:45.889Z,27.32
2018-07-07T12:49:54.533Z,27.29
2018-07-07T12:51:04.233Z,27.32
2018-07-07T12:52:13.407Z,27.25
2018-07-07T12:53:22.843Z,27.37
2018-07-07T12:54:32.008Z,27.31
2018-07-07T12:55:41.989Z,27.17
2018-07-07T12:56:51.693Z,27.34
2018-07-07T12:58:01.637Z,27.25
2018-07-07T12:59:11.073Z,27.28
2018-07-07T13:00:20.225Z,27.32
2018-07-07T13:01:29.914Z,27.27
2018-07-07T13:02:39.586Z,27.25
2018-07-07T13:03:49.026Z,27.28
2018-07-07T13:04:58.428Z,27.24
2018-07-07T13:06:07.858Z,27.39
2018-07-07T13:07:17.061Z,27.25
2018-07-07T13:08:26.284Z,27.36
2018-07-07T13:09:35.453Z,27.34
2018-07-07T13:10:45.134Z,27.34
2018-07-07T13:11:54.307Z,27.24
2018-07-07T13:13:03.731Z,27.39
2018-07-07T13:14:13.418Z,27.32
2018-07-07T13:15:22.590Z,27.31
2018-07-07T13:16:32.011Z,27.34
2018-07-07T13:17:41.187Z,27.34
2018-07-07T13:18:50.615Z,27.37
2018-07-07T13:19:59.787Z,27.34
2018-07-07T13:21:08.702Z,27.37
2018-07-07T13:22:17.846Z,27.21
2018-07-07T13:23:27.293Z,27.31
2018-07-07T13:24:36.517Z,27.28
2018-07-07T13:25:46.194Z,27.34
2018-07-07T13:26:55.890Z,27.31
2018-07-07T13:28:05.345Z,27.32
2018-07-07T13:29:15.027Z,27.31
2018-07-07T13:30:24.949Z,27.34
2018-07-07T13:31:34.091Z,27.32
2018-07-07T13:32:43.997Z,27.41
2018-07-07T13:33:53.155Z,27.32
2018-07-07T13:35:02.562Z,27.43
2018-07-07T13:36:12.233Z,27.34
2018-07-07T13:37:21.142Z,27.39
2018-07-07T13:38:30.848Z,27.4
2018-07-07T13:39:40.257Z,27.36
2018-07-07T13:40:49.405Z,27.4
2018-07-07T13:41:59.103Z,27.4
2018-07-07T13:43:08.517Z,27.39
2018-07-07T13:44:17.438Z,27.4
2018-07-07T13:45:27.168Z,27.39
2018-07-07T13:46:37.010Z,27.43
2018-07-07T13:47:46.943Z,27.4
2018-07-07T13:48:56.352Z,27.32
2018-07-07T13:50:06.074Z,27.34
2018-07-07T13:51:14.975Z,27.47
2018-07-07T13:52:24.375Z,27.34
2018-07-07T13:53:34.063Z,27.5
2018-07-07T13:54:43.748Z,27.51
2018-07-07T13:55:53.162Z,27.47
2018-07-07T13:57:02.833Z,27.5
2018-07-07T13:58:12.511Z,27.51
2018-07-07T13:59:22.425Z,27.47
2018-07-07T14:00:31.333Z,27.46
2018-07-07T14:01:40.504Z,27.41
2018-07-07T14:02:49.665Z,27.5
2018-07-07T14:03:59.075Z,27.47
2018-07-07T14:05:08.741Z,27.46
2018-07-07T14:06:17.895Z,27.47
2018-07-07T14:07:27.073Z,27.49
2018-07-07T14:08:36.491Z,27.6
2018-07-07T14:09:45.645Z,27.51
2018-07-07T14:10:54.820Z,27.54
2018-07-07T14:12:04.222Z,27.5
2018-07-07T14:13:13.648Z,27.5
2018-07-07T14:14:23.047Z,27.49
2018-07-07T14:15:32.475Z,27.57
2018-07-07T14:16:41.912Z,27.66
2018-07-07T14:17:51.320Z,27.55
2018-07-07T14:19:00.749Z,27.57
2018-07-07T14:20:10.433Z,27.54
2018-07-07T14:21:19.857Z,27.54
2018-07-07T14:22:29.015Z,27.54
2018-07-07T14:23:38.866Z,27.5
2018-07-07T14:24:48.899Z,27.57
2018-07-07T14:25:58.310Z,27.5
2018-07-07T14:27:07.517Z,27.54
2018-07-07T14:28:16.177Z,27.63
2018-07-07T14:29:26.118Z,27.51
2018-07-07T14:30:35.285Z,27.54
2018-07-07T14:31:44.534Z,27.55
2018-07-07T14:32:53.815Z,27.55
2018-07-07T14:34:03.500Z,27.59
2018-07-07T14:35:12.395Z,27.55
2018-07-07T14:36:21.569Z,27.63
2018-07-07T14:37:30.724Z,27.66
2018-07-07T14:38:40.160Z,27.62
2018-07-07T14:39:49.616Z,27.7
2018-07-07T14:40:58.528Z,27.66
2018-07-07T14:42:07.758Z,27.65
2018-07-07T14:43:16.914Z,27.6
2018-07-07T14:44:26.054Z,27.59
2018-07-07T14:45:35.749Z,27.6
2018-07-07T14:46:45.326Z,27.6
2018-07-07T14:47:56.874Z,27.72
2018-07-07T14:49:06.234Z,27.67
2018-07-07T14:50:15.665Z,27.69
2018-07-07T14:51:25.076Z,27.59
2018-07-07T14:52:34.223Z,27.65
2018-07-07T14:53:43.113Z,27.66
2018-07-07T14:54:52.526Z,27.62
2018-07-07T14:56:01.670Z,27.62
2018-07-07T14:57:10.579Z,27.72